Time;durP1;ratioP1;P1;durP2;ratioP2;P2;SDS_P1;SDS_P2;PMS_P1;PMS_P2;Temp;Humidity;BMP_temperature;BMP_pressure;BME280_temperature;BME280_humidity;BME280_pressure;Samples;Min_cycle;Max_cycle;Signal;HPM_P1;HPM_P2
2023/12/21 00:01:18;;;;;;;;;;;11.00;99.90;;;;;;5115410;28;19911;-75
2023/12/21 00:03:44;;;;;;;;;;;11.00;99.90;;;;;;5114948;28;19908;-74
2023/12/21 00:06:10;;;;;;;;;;;11.00;99.90;;;;;;5114745;28;19942;-74
2023/12/21 00:08:36;;;;;;;;;;;10.90;99.90;;;;;;5115245;28;19987;-74
2023/12/21 00:11:01;;;;;;;;;;;11.00;99.90;;;;;;5115128;28;20033;-74
2023/12/21 00:13:27;;;;;;;;;;;10.90;99.90;;;;;;5096334;28;19912;-74
2023/12/21 00:15:53;;;;;;;;;;;10.90;99.90;;;;;;5114723;28;20229;-74
2023/12/21 00:18:19;;;;;;;;;;;10.90;99.90;;;;;;5115069;28;19965;-73
2023/12/21 00:20:45;;;;;;;;;;;10.80;99.90;;;;;;5114621;28;19980;-75
2023/12/21 00:23:11;;;;;;;;;;;10.80;99.90;;;;;;5115519;28;19908;-74
2023/12/21 00:25:37;;;;;;;;;;;10.90;99.90;;;;;;5114707;28;19916;-75
2023/12/21 00:28:03;;;;;;;;;;;10.90;99.90;;;;;;5114595;28;19942;-73
2023/12/21 00:30:28;;;;;;;;;;;10.90;99.90;;;;;;5114702;28;19908;-75
2023/12/21 00:32:54;;;;;;;;;;;10.90;99.90;;;;;;5114727;28;20359;-74
2023/12/21 00:35:20;;;;;;;;;;;10.90;99.90;;;;;;5114387;28;20016;-73
2023/12/21 00:37:46;;;;;;;;;;;11.00;99.90;;;;;;5095960;28;19972;-72
2023/12/21 00:40:12;;;;;;;;;;;11.00;99.90;;;;;;5114359;28;19914;-74
2023/12/21 00:42:38;;;;;;;;;;;11.00;99.90;;;;;;5113627;28;20054;-74
2023/12/21 00:45:05;;;;;;;;;;;11.00;99.90;;;;;;5114423;28;19919;-74
2023/12/21 00:47:31;;;;;;;;;;;11.00;99.90;;;;;;5114285;28;19915;-73
2023/12/21 00:49:57;;;;;;;;;;;11.00;99.90;;;;;;5113859;28;20002;-73
2023/12/21 00:52:23;;;;;;;;;;;10.90;99.90;;;;;;5114177;28;19950;-74
2023/12/21 00:54:49;;;;;;;;;;;11.00;99.90;;;;;;5114130;28;19952;-74
2023/12/21 00:57:15;;;;;;;;;;;11.00;99.90;;;;;;5114151;28;20306;-74
2023/12/21 00:59:41;;;;;;;;;;;11.00;99.90;;;;;;5113785;28;20367;-74
2023/12/21 01:02:07;;;;;;;;;;;11.00;99.90;;;;;;5113970;28;19915;-74
2023/12/21 01:04:33;;;;;;;;;;;11.00;99.90;;;;;;5112907;28;20327;-74
2023/12/21 01:06:59;;;;;;;;;;;11.00;99.90;;;;;;5113556;28;20060;-74
2023/12/21 01:09:26;;;;;;;;;;;10.90;99.90;;;;;;5113339;28;20255;-75
2023/12/21 01:11:51;;;;;;;;;;;11.00;99.90;;;;;;5113140;28;19916;-73
2023/12/21 01:14:17;;;;;;;;;;;10.90;99.90;;;;;;5113008;28;20024;-74
2023/12/21 01:16:43;;;;;;;;;;;10.90;99.90;;;;;;5112914;28;19999;-74
2023/12/21 01:19:09;;;;;;;;;;;10.90;99.90;;;;;;5112802;28;19908;-74
2023/12/21 01:21:35;;;;;;;;;;;10.90;99.90;;;;;;5112903;28;19923;-75
2023/12/21 01:24:00;;;;;;;;;;;10.90;99.90;;;;;;5113008;28;20022;-74
2023/12/21 01:26:26;;;;;;;;;;;10.90;99.90;;;;;;5112817;28;19912;-75
2023/12/21 01:28:52;;;;;;;;;;;11.00;99.90;;;;;;5112757;28;19908;-73
2023/12/21 01:31:18;;;;;;;;;;;10.90;99.90;;;;;;5112513;28;19907;-74
2023/12/21 01:33:44;;;;;;;;;;;10.90;99.90;;;;;;5112563;28;19947;-73
2023/12/21 01:36:11;;;;;;;;;;;10.90;99.90;;;;;;5112150;28;19908;-74
2023/12/21 01:38:36;;;;;;;;;;;10.90;99.90;;;;;;5112732;28;20370;-74
2023/12/21 01:41:02;;;;;;;;;;;10.80;99.90;;;;;;5112345;28;20018;-74
2023/12/21 01:43:28;;;;;;;;;;;10.80;99.90;;;;;;5112966;28;19911;-75
2023/12/21 01:45:55;;;;;;;;;;;10.70;99.90;;;;;;5112793;28;19919;-76
2023/12/21 01:48:21;;;;;;;;;;;10.50;99.90;;;;;;5093863;28;19938;-74
2023/12/21 01:50:47;;;;;;;;;;;10.50;99.90;;;;;;5111973;28;20417;-74
2023/12/21 01:53:14;;;;;;;;;;;10.50;99.90;;;;;;5093451;28;20346;-74
2023/12/21 01:55:40;;;;;;;;;;;10.50;99.90;;;;;;5093121;28;19964;-73
2023/12/21 01:58:06;;;;;;;;;;;10.30;99.90;;;;;;5112522;28;20048;-74
2023/12/21 02:00:32;;;;;;;;;;;10.30;99.90;;;;;;5111846;28;19931;-74
2023/12/21 02:02:58;;;;;;;;;;;10.20;99.90;;;;;;5112081;28;20318;-74
2023/12/21 02:05:23;;;;;;;;;;;10.20;99.90;;;;;;5111880;28;19938;-75
2023/12/21 02:07:49;;;;;;;;;;;10.20;99.90;;;;;;5112312;28;19970;-74
2023/12/21 02:10:15;;;;;;;;;;;10.20;99.90;;;;;;5111850;28;19950;-74
2023/12/21 02:12:41;;;;;;;;;;;10.20;99.90;;;;;;5111921;28;19941;-74
2023/12/21 02:15:07;;;;;;;;;;;10.10;99.90;;;;;;5111888;28;20400;-75
2023/12/21 02:17:33;;;;;;;;;;;10.10;99.90;;;;;;5111780;28;19912;-74
2023/12/21 02:19:59;;;;;;;;;;;10.10;99.90;;;;;;5111691;28;20314;-75
2023/12/21 02:22:26;;;;;;;;;;;10.00;99.90;;;;;;5093237;28;19951;-74
2023/12/21 02:24:52;;;;;;;;;;;10.00;99.90;;;;;;5111999;28;20354;-74
2023/12/21 02:27:19;;;;;;;;;;;10.00;99.90;;;;;;5111850;28;19912;-74
2023/12/21 02:29:45;;;;;;;;;;;9.90;99.90;;;;;;5111703;28;19919;-74
2023/12/21 02:32:11;;;;;;;;;;;9.80;99.90;;;;;;5093235;28;19983;-74
2023/12/21 02:34:36;;;;;;;;;;;9.80;99.90;;;;;;5093108;28;19908;-74
2023/12/21 02:37:02;;;;;;;;;;;9.80;99.90;;;;;;5093305;28;19908;-74
2023/12/21 02:39:28;;;;;;;;;;;9.80;99.90;;;;;;5111994;28;19915;-74
2023/12/21 02:41:54;;;;;;;;;;;9.80;99.90;;;;;;5111614;28;19909;-75
2023/12/21 02:44:20;;;;;;;;;;;9.80;99.90;;;;;;5111568;28;19922;-73
2023/12/21 02:46:46;;;;;;;;;;;9.70;99.90;;;;;;5111303;28;19912;-75
2023/12/21 02:49:11;;;;;;;;;;;9.70;99.90;;;;;;5111375;28;19914;-74
2023/12/21 02:51:37;;;;;;;;;;;9.70;99.90;;;;;;5111075;28;19907;-74
2023/12/21 02:54:03;;;;;;;;;;;9.60;99.90;;;;;;5111405;28;19908;-74
2023/12/21 02:56:29;;;;;;;;;;;9.60;99.90;;;;;;5111588;28;20359;-74
2023/12/21 02:58:55;;;;;;;;;;;9.60;99.90;;;;;;5111240;28;20293;-72
2023/12/21 03:01:20;;;;;;;;;;;9.60;99.90;;;;;;5111246;28;20332;-74
2023/12/21 03:03:46;;;;;;;;;;;9.60;99.90;;;;;;5111056;28;19907;-74
2023/12/21 03:06:12;;;;;;;;;;;9.50;99.90;;;;;;5110563;28;19995;-74
2023/12/21 03:08:38;;;;;;;;;;;9.40;99.90;;;;;;5111259;28;20056;-73
2023/12/21 03:11:04;;;;;;;;;;;9.40;99.90;;;;;;5110903;28;19953;-74
2023/12/21 03:13:30;;;;;;;;;;;9.30;99.90;;;;;;5111095;28;19919;-74
2023/12/21 03:15:56;;;;;;;;;;;9.30;99.90;;;;;;5111104;28;19950;-74
2023/12/21 03:18:22;;;;;;;;;;;9.20;99.90;;;;;;5110801;28;20362;-74
2023/12/21 03:20:47;;;;;;;;;;;9.20;99.90;;;;;;5092469;28;19908;-74
2023/12/21 03:23:14;;;;;;;;;;;9.20;99.90;;;;;;5111292;28;19919;-74
2023/12/21 03:25:40;;;;;;;;;;;9.20;99.90;;;;;;5110851;28;19931;-74
2023/12/21 03:28:08;;;;;;;;;;;9.20;99.90;;;;;;5092230;28;19984;-74
2023/12/21 03:30:34;;;;;;;;;;;9.20;99.90;;;;;;5110632;28;19928;-72
2023/12/21 03:33:01;;;;;;;;;;;9.20;99.90;;;;;;5110474;28;19912;-73
2023/12/21 03:35:26;;;;;;;;;;;9.20;99.90;;;;;;5092273;28;19998;-76
2023/12/21 03:37:58;;;;;;;;;;;9.30;99.90;;;;;;5110818;28;19926;-75
2023/12/21 03:40:25;;;;;;;;;;;9.40;99.90;;;;;;5110756;28;19908;-74
2023/12/21 03:42:52;;;;;;;;;;;9.40;99.90;;;;;;5110743;28;20371;-74
2023/12/21 03:45:19;;;;;;;;;;;9.50;99.90;;;;;;5092432;28;19983;-75
2023/12/21 03:47:45;;;;;;;;;;;9.50;99.90;;;;;;5110682;28;20365;-74
2023/12/21 03:50:11;;;;;;;;;;;9.50;99.90;;;;;;5110531;28;20025;-74
2023/12/21 03:52:37;;;;;;;;;;;9.60;99.90;;;;;;5110569;28;19923;-74
2023/12/21 03:55:03;;;;;;;;;;;9.70;99.90;;;;;;5110803;28;19908;-72
2023/12/21 03:57:29;;;;;;;;;;;9.70;99.90;;;;;;5110528;28;20330;-72
2023/12/21 03:59:55;;;;;;;;;;;9.80;99.90;;;;;;5110564;28;20109;-74
2023/12/21 04:02:21;;;;;;;;;;;9.90;99.90;;;;;;5110366;28;20324;-74
2023/12/21 04:04:47;;;;;;;;;;;9.90;99.90;;;;;;5110337;28;19915;-73
2023/12/21 04:07:12;;;;;;;;;;;9.90;99.90;;;;;;5110635;28;20046;-73
2023/12/21 04:09:38;;;;;;;;;;;9.90;99.90;;;;;;5110874;28;19915;-74
2023/12/21 04:12:05;;;;;;;;;;;10.00;99.90;;;;;;5110957;28;19907;-74
2023/12/21 04:14:32;;;;;;;;;;;10.00;99.90;;;;;;5110650;28;20404;-74
2023/12/21 04:16:58;;;;;;;;;;;10.10;99.90;;;;;;5111074;28;19907;-74
2023/12/21 04:19:23;;;;;;;;;;;10.10;99.90;;;;;;5113684;28;19957;-74
2023/12/21 04:21:49;;;;;;;;;;;10.20;99.90;;;;;;5113559;28;20004;-73
2023/12/21 04:24:15;;;;;;;;;;;10.20;99.90;;;;;;5114436;28;19908;-73
2023/12/21 04:26:41;;;;;;;;;;;10.20;99.90;;;;;;5114696;28;20347;-74
2023/12/21 04:29:07;;;;;;;;;;;10.30;99.90;;;;;;5115185;28;19908;-74
2023/12/21 04:31:33;;;;;;;;;;;10.30;99.90;;;;;;5115656;28;19912;-74
2023/12/21 04:33:59;;;;;;;;;;;10.40;99.90;;;;;;5115259;28;20045;-74
2023/12/21 04:36:27;;;;;;;;;;;10.40;99.90;;;;;;5114936;28;19908;-74
2023/12/21 04:38:55;;;;;;;;;;;10.40;99.90;;;;;;5118696;28;19908;-74
2023/12/21 04:41:21;;;;;;;;;;;10.40;99.90;;;;;;5115420;28;19912;-73
2023/12/21 04:43:47;;;;;;;;;;;10.40;99.90;;;;;;5115348;28;19914;-69
2023/12/21 04:46:12;;;;;;;;;;;10.50;99.90;;;;;;5114728;28;20305;-73
2023/12/21 04:48:38;;;;;;;;;;;10.60;99.90;;;;;;5096554;28;19947;-74
2023/12/21 04:51:04;;;;;;;;;;;10.70;99.90;;;;;;5096169;28;20364;-73
2023/12/21 04:53:30;;;;;;;;;;;10.70;99.90;;;;;;5096930;28;19912;-74
2023/12/21 04:55:55;;;;;;;;;;;10.70;99.90;;;;;;5115666;28;19907;-73
2023/12/21 04:58:21;;;;;;;;;;;10.70;99.90;;;;;;5115578;28;20319;-75
2023/12/21 05:00:50;;;;;;;;;;;10.70;99.90;;;;;;5114569;28;19919;-74
2023/12/21 05:03:21;;;;;;;;;;;10.70;99.90;;;;;;5115257;28;20331;-74
2023/12/21 05:05:47;;;;;;;;;;;10.70;99.90;;;;;;5115057;28;19963;-75
2023/12/21 05:08:13;;;;;;;;;;;10.70;99.90;;;;;;5115316;28;19939;-73
2023/12/21 05:10:39;;;;;;;;;;;10.70;99.90;;;;;;5096622;28;19908;-74
2023/12/21 05:13:05;;;;;;;;;;;10.80;99.90;;;;;;5114945;28;19941;-74
2023/12/21 05:15:31;;;;;;;;;;;10.80;99.90;;;;;;5114879;28;19966;-74
2023/12/21 05:17:56;;;;;;;;;;;10.80;99.90;;;;;;5115900;28;19998;-74
2023/12/21 05:20:22;;;;;;;;;;;10.90;99.90;;;;;;5115385;28;19918;-73
2023/12/21 05:22:48;;;;;;;;;;;11.00;99.90;;;;;;5115327;28;19908;-74
2023/12/21 05:25:17;;;;;;;;;;;11.00;99.90;;;;;;5115180;28;19923;-74
2023/12/21 05:27:43;;;;;;;;;;;11.10;99.90;;;;;;5115483;28;19914;-74
2023/12/21 05:30:09;;;;;;;;;;;11.10;99.90;;;;;;5115342;28;19934;-74
2023/12/21 05:32:35;;;;;;;;;;;11.20;99.90;;;;;;5115368;28;19912;-75
2023/12/21 05:35:02;;;;;;;;;;;11.20;99.90;;;;;;5115005;28;19957;-74
2023/12/21 05:37:29;;;;;;;;;;;11.20;99.90;;;;;;5115075;28;19915;-75
2023/12/21 05:39:55;;;;;;;;;;;11.20;99.90;;;;;;5115014;28;19908;-74
2023/12/21 05:42:21;;;;;;;;;;;11.20;99.90;;;;;;5115133;28;19961;-74
2023/12/21 05:44:47;;;;;;;;;;;11.20;99.90;;;;;;5115444;28;20422;-74
2023/12/21 05:47:12;;;;;;;;;;;11.20;99.90;;;;;;5115255;28;19999;-75
2023/12/21 05:49:38;;;;;;;;;;;11.20;99.90;;;;;;5115460;28;19934;-75
2023/12/21 05:52:04;;;;;;;;;;;11.30;99.90;;;;;;5114820;28;19908;-74
2023/12/21 05:54:30;;;;;;;;;;;11.30;99.90;;;;;;5115257;28;19962;-74
2023/12/21 05:56:56;;;;;;;;;;;11.30;99.90;;;;;;5114955;28;20344;-74
2023/12/21 05:59:22;;;;;;;;;;;11.40;99.90;;;;;;5096061;28;19924;-74
2023/12/21 06:01:48;;;;;;;;;;;11.40;99.90;;;;;;5116842;28;19915;-74
2023/12/21 06:04:14;;;;;;;;;;;11.40;99.90;;;;;;5114789;28;20428;-75
2023/12/21 06:06:44;;;;;;;;;;;11.40;99.90;;;;;;5114415;28;19912;-75
2023/12/21 06:09:10;;;;;;;;;;;11.30;99.90;;;;;;5096848;28;19915;-74
2023/12/21 06:11:39;;;;;;;;;;;11.30;99.90;;;;;;5096824;28;19908;-76
2023/12/21 06:14:05;;;;;;;;;;;11.30;99.90;;;;;;5100527;28;20351;-76
2023/12/21 06:16:31;;;;;;;;;;;11.30;99.90;;;;;;5117974;28;20010;-74
2023/12/21 06:18:56;;;;;;;;;;;11.30;99.90;;;;;;5119089;28;20371;-77
2023/12/21 06:21:23;;;;;;;;;;;11.40;99.90;;;;;;5114473;28;19995;-74
2023/12/21 06:23:49;;;;;;;;;;;11.50;99.90;;;;;;5114613;28;19937;-75
2023/12/21 06:26:15;;;;;;;;;;;11.50;99.90;;;;;;5114113;28;19916;-75
2023/12/21 06:28:41;;;;;;;;;;;11.50;99.90;;;;;;5118195;28;19918;-74
2023/12/21 06:31:09;;;;;;;;;;;11.50;99.90;;;;;;5116351;28;19994;-75
2023/12/21 06:33:34;;;;;;;;;;;11.50;99.90;;;;;;5114375;28;19912;-75
2023/12/21 06:36:00;;;;;;;;;;;11.50;99.90;;;;;;5113340;28;20011;-75
2023/12/21 06:38:26;;;;;;;;;;;11.50;99.90;;;;;;5113502;28;19912;-75
2023/12/21 06:40:52;;;;;;;;;;;11.50;99.90;;;;;;5113466;28;20360;-75
2023/12/21 06:43:19;;;;;;;;;;;11.50;99.90;;;;;;5095301;28;19908;-75
2023/12/21 06:45:47;;;;;;;;;;;11.30;99.90;;;;;;5113075;28;20022;-75
2023/12/21 06:48:13;;;;;;;;;;;11.10;99.90;;;;;;5113389;28;19915;-75
2023/12/21 06:50:39;;;;;;;;;;;11.00;99.90;;;;;;5112885;28;19908;-76
2023/12/21 06:53:05;;;;;;;;;;;10.90;99.90;;;;;;5112725;28;19908;-75
2023/12/21 06:55:31;;;;;;;;;;;10.90;99.90;;;;;;5112069;28;19912;-75
2023/12/21 06:57:57;;;;;;;;;;;10.70;99.90;;;;;;5111696;28;19918;-75
2023/12/21 07:00:23;;;;;;;;;;;10.80;99.90;;;;;;5111565;28;19927;-75
2023/12/21 07:02:49;;;;;;;;;;;10.80;99.90;;;;;;5111913;28;19908;-72
2023/12/21 07:05:15;;;;;;;;;;;10.80;99.90;;;;;;5111949;28;20224;-75
2023/12/21 07:07:41;;;;;;;;;;;10.90;99.90;;;;;;5112662;28;19957;-73
2023/12/21 07:10:07;;;;;;;;;;;11.00;99.90;;;;;;5112338;28;20240;-76
2023/12/21 07:12:33;;;;;;;;;;;11.20;99.90;;;;;;5112413;28;20015;-76
2023/12/21 07:14:59;;;;;;;;;;;11.40;99.90;;;;;;5093298;28;20369;-75
2023/12/21 07:17:26;;;;;;;;;;;11.70;99.90;;;;;;5093409;28;19919;-76
2023/12/21 07:19:51;;;;;;;;;;;12.00;99.90;;;;;;5093453;28;19911;-75
2023/12/21 07:22:17;;;;;;;;;;;12.20;99.90;;;;;;5112285;28;19907;-75
2023/12/21 07:24:44;;;;;;;;;;;12.40;99.90;;;;;;5112129;28;19911;-75
2023/12/21 07:27:10;;;;;;;;;;;12.60;99.90;;;;;;5112091;28;20041;-75
2023/12/21 07:29:36;;;;;;;;;;;12.70;99.90;;;;;;5112449;28;19908;-76
2023/12/21 07:32:02;;;;;;;;;;;12.90;99.90;;;;;;5111644;28;19908;-76
2023/12/21 07:34:28;;;;;;;;;;;12.90;99.90;;;;;;5111742;28;19918;-74
2023/12/21 07:36:54;;;;;;;;;;;13.00;99.90;;;;;;5111980;28;19908;-78
2023/12/21 07:39:20;;;;;;;;;;;13.10;99.90;;;;;;5112108;28;19908;-75
2023/12/21 07:41:47;;;;;;;;;;;13.10;99.90;;;;;;5112070;28;20378;-77
2023/12/21 07:44:12;;;;;;;;;;;13.20;99.90;;;;;;5112003;28;19907;-73
2023/12/21 07:46:38;;;;;;;;;;;13.20;99.90;;;;;;5111800;28;19916;-76
2023/12/21 07:49:04;;;;;;;;;;;13.10;99.90;;;;;;5111873;28;19977;-76
2023/12/21 07:51:30;;;;;;;;;;;13.10;99.90;;;;;;5112048;28;19908;-77
2023/12/21 07:53:55;;;;;;;;;;;13.20;99.90;;;;;;5115960;28;20301;-78
2023/12/21 07:56:21;;;;;;;;;;;13.30;99.90;;;;;;5115938;28;20010;-73
2023/12/21 07:58:47;;;;;;;;;;;13.30;99.90;;;;;;5116197;28;19915;-77
2023/12/21 08:01:13;;;;;;;;;;;13.40;99.90;;;;;;5115573;28;20072;-72
2023/12/21 08:03:39;;;;;;;;;;;13.50;99.90;;;;;;5115788;28;19911;-75
2023/12/21 08:06:05;;;;;;;;;;;13.60;99.90;;;;;;5115147;28;20360;-75
2023/12/21 08:08:31;;;;;;;;;;;13.60;99.90;;;;;;5115802;28;19912;-78
2023/12/21 08:10:57;;;;;;;;;;;13.60;99.90;;;;;;5114539;28;19954;-77
2023/12/21 08:13:24;;;;;;;;;;;13.60;99.90;;;;;;5114290;28;19930;-79
2023/12/21 08:15:51;;;;;;;;;;;13.60;99.90;;;;;;5116068;28;20336;-78
2023/12/21 08:18:17;;;;;;;;;;;13.70;99.90;;;;;;5115784;28;19908;-77
2023/12/21 08:20:47;;;;;;;;;;;13.90;99.90;;;;;;5115718;28;19918;-79
2023/12/21 08:23:13;;;;;;;;;;;13.90;99.90;;;;;;5115582;28;20271;-77
2023/12/21 08:25:39;;;;;;;;;;;14.00;99.90;;;;;;5115384;28;20033;-78
2023/12/21 08:28:04;;;;;;;;;;;14.10;99.90;;;;;;5115160;28;19915;-77
2023/12/21 08:30:30;;;;;;;;;;;14.30;99.90;;;;;;5115399;28;19907;-77
2023/12/21 08:32:57;;;;;;;;;;;14.50;99.90;;;;;;5115541;28;20376;-78
2023/12/21 08:35:23;;;;;;;;;;;14.60;99.90;;;;;;5115062;28;19998;-77
2023/12/21 08:37:49;;;;;;;;;;;14.70;99.90;;;;;;5096493;28;20036;-79
2023/12/21 08:40:15;;;;;;;;;;;14.80;99.90;;;;;;5115037;28;20397;-78
2023/12/21 08:42:41;;;;;;;;;;;15.00;99.90;;;;;;5115133;28;20420;-78
2023/12/21 08:45:07;;;;;;;;;;;15.10;99.90;;;;;;5114719;28;19919;-77
2023/12/21 08:47:40;;;;;;;;;;;15.20;99.90;;;;;;5114845;28;19908;-79
2023/12/21 08:50:07;;;;;;;;;;;15.30;99.90;;;;;;5114681;28;19908;-79
2023/12/21 08:52:33;;;;;;;;;;;15.50;99.90;;;;;;5114534;28;20271;-79
2023/12/21 08:54:59;;;;;;;;;;;15.60;99.90;;;;;;5114492;28;19907;-75
2023/12/21 08:57:25;;;;;;;;;;;15.70;99.90;;;;;;5114696;28;20286;-77
2023/12/21 08:59:51;;;;;;;;;;;15.70;99.90;;;;;;5114183;28;20547;-78
2023/12/21 09:02:17;;;;;;;;;;;15.70;99.90;;;;;;5113875;28;20348;-78
2023/12/21 09:04:43;;;;;;;;;;;15.70;99.90;;;;;;5113767;28;19912;-78
2023/12/21 09:07:10;;;;;;;;;;;15.70;99.90;;;;;;5114125;28;19957;-80
2023/12/21 09:09:36;;;;;;;;;;;15.70;99.90;;;;;;5114692;28;19915;-77
2023/12/21 09:12:02;;;;;;;;;;;15.70;99.90;;;;;;5114168;28;19908;-78
2023/12/21 09:14:28;;;;;;;;;;;15.80;99.90;;;;;;5095858;28;20016;-78
2023/12/21 09:16:54;;;;;;;;;;;15.90;99.90;;;;;;5114434;28;19913;-78
2023/12/21 09:19:20;;;;;;;;;;;16.00;99.90;;;;;;5095700;28;20391;-78
2023/12/21 09:21:46;;;;;;;;;;;16.10;99.90;;;;;;5114381;28;19915;-78
2023/12/21 09:24:12;;;;;;;;;;;16.10;99.90;;;;;;5115064;28;19907;-78
2023/12/21 09:26:37;;;;;;;;;;;16.20;99.90;;;;;;5114396;28;20252;-78
2023/12/21 09:29:04;;;;;;;;;;;16.10;99.90;;;;;;5114778;28;19949;-79
2023/12/21 09:31:32;;;;;;;;;;;15.90;99.90;;;;;;5113741;28;19951;-78
2023/12/21 09:34:02;;;;;;;;;;;15.90;99.90;;;;;;5113314;28;20000;-78
2023/12/21 09:36:27;;;;;;;;;;;15.80;99.90;;;;;;5094400;28;19908;-77
2023/12/21 09:38:54;;;;;;;;;;;15.80;99.90;;;;;;5095209;28;19953;-74
2023/12/21 09:41:20;;;;;;;;;;;15.60;99.90;;;;;;5113432;28;20388;-77
2023/12/21 09:43:47;;;;;;;;;;;15.50;99.90;;;;;;5112946;28;20050;-78
2023/12/21 09:46:14;;;;;;;;;;;15.60;99.90;;;;;;5113022;28;20262;-79
2023/12/21 09:48:42;;;;;;;;;;;15.60;99.90;;;;;;5113263;28;19912;-79
2023/12/21 09:51:13;;;;;;;;;;;15.70;99.90;;;;;;5094312;28;19908;-79
2023/12/21 09:53:39;;;;;;;;;;;15.50;99.90;;;;;;5113008;28;19908;-78
2023/12/21 09:56:06;;;;;;;;;;;15.40;99.90;;;;;;5113378;28;20249;-78
2023/12/21 09:58:32;;;;;;;;;;;15.50;99.90;;;;;;5113429;28;19912;-78
2023/12/21 10:00:58;;;;;;;;;;;15.40;99.90;;;;;;5094871;28;19920;-77
2023/12/21 10:03:24;;;;;;;;;;;15.40;99.90;;;;;;5113252;28;19908;-77
2023/12/21 10:05:50;;;;;;;;;;;15.40;99.90;;;;;;5113206;28;19951;-79
2023/12/21 10:08:18;;;;;;;;;;;15.60;99.90;;;;;;5095566;28;20013;-77
2023/12/21 10:10:44;;;;;;;;;;;15.50;99.90;;;;;;5113546;28;19908;-77
2023/12/21 10:13:11;;;;;;;;;;;15.40;99.90;;;;;;5113882;28;20374;-79
2023/12/21 10:15:37;;;;;;;;;;;15.60;99.90;;;;;;5112495;28;20011;-77
2023/12/21 10:18:05;;;;;;;;;;;15.80;99.90;;;;;;5113035;28;19943;-79
2023/12/21 10:20:31;;;;;;;;;;;16.00;99.90;;;;;;5112627;28;20420;-77
2023/12/21 10:22:58;;;;;;;;;;;16.00;99.90;;;;;;5094427;28;19912;-78
2023/12/21 10:25:25;;;;;;;;;;;16.10;99.90;;;;;;5112659;28;19916;-78
2023/12/21 10:27:55;;;;;;;;;;;16.10;99.90;;;;;;5112777;28;20351;-79
2023/12/21 10:30:24;;;;;;;;;;;15.90;99.90;;;;;;5112986;28;19954;-78
2023/12/21 10:32:55;;;;;;;;;;;16.00;99.90;;;;;;5111912;28;20371;-78
2023/12/21 10:35:22;;;;;;;;;;;16.10;99.90;;;;;;5111442;28;19908;-78
2023/12/21 10:37:48;;;;;;;;;;;15.90;99.90;;;;;;5112099;28;20027;-78
2023/12/21 10:40:14;;;;;;;;;;;15.90;99.90;;;;;;5112021;28;19908;-78
2023/12/21 10:42:45;;;;;;;;;;;15.80;99.90;;;;;;5111954;28;19908;-78
2023/12/21 10:45:13;;;;;;;;;;;15.70;99.90;;;;;;5112266;28;19920;-78
2023/12/21 10:47:42;;;;;;;;;;;15.60;99.90;;;;;;5111783;28;19914;-78
2023/12/21 10:50:09;;;;;;;;;;;15.50;99.90;;;;;;5112564;28;19998;-77
2023/12/21 10:52:35;;;;;;;;;;;15.40;99.90;;;;;;5111907;28;19912;-77
2023/12/21 10:55:01;;;;;;;;;;;15.50;99.90;;;;;;5111776;28;20037;-75
2023/12/21 10:57:27;;;;;;;;;;;15.60;99.90;;;;;;5093656;28;20363;-78
2023/12/21 10:59:53;;;;;;;;;;;15.70;99.90;;;;;;5111446;28;19951;-78
2023/12/21 11:02:19;;;;;;;;;;;15.90;99.90;;;;;;5111739;28;19914;-78
2023/12/21 11:04:45;;;;;;;;;;;16.10;99.90;;;;;;5093176;28;19965;-78
2023/12/21 11:07:11;;;;;;;;;;;16.20;99.90;;;;;;5111424;28;19912;-78
2023/12/21 11:09:37;;;;;;;;;;;16.30;99.90;;;;;;5111645;28;19908;-78
2023/12/21 11:12:03;;;;;;;;;;;16.40;99.90;;;;;;5111546;28;19908;-78
2023/12/21 11:14:28;;;;;;;;;;;16.50;99.90;;;;;;5111447;28;19967;-78
2023/12/21 11:16:57;;;;;;;;;;;16.50;99.90;;;;;;5111796;28;19907;-77
2023/12/21 11:19:27;;;;;;;;;;;16.50;99.90;;;;;;5093372;28;19916;-77
2023/12/21 11:21:54;;;;;;;;;;;16.70;99.90;;;;;;5111475;28;19915;-77
2023/12/21 11:24:21;;;;;;;;;;;16.80;99.90;;;;;;5111832;28;20002;-78
2023/12/21 11:26:48;;;;;;;;;;;16.50;99.90;;;;;;5094444;28;19923;-78
2023/12/21 11:29:14;;;;;;;;;;;16.40;99.90;;;;;;5115858;28;19907;-78
2023/12/21 11:31:40;;;;;;;;;;;16.10;99.90;;;;;;5115545;28;19908;-78
2023/12/21 11:34:13;;;;;;;;;;;16.20;99.90;;;;;;5115346;28;19907;-78
2023/12/21 11:36:40;;;;;;;;;;;16.30;99.90;;;;;;5115488;28;19930;-78
2023/12/21 11:39:12;;;;;;;;;;;16.30;99.90;;;;;;5115722;28;19914;-78
2023/12/21 11:41:50;;;;;;;;;;;16.30;99.90;;;;;;5115725;28;20030;-78
2023/12/21 11:44:17;;;;;;;;;;;16.10;99.90;;;;;;5115403;28;19973;-78
2023/12/21 11:46:43;;;;;;;;;;;16.10;99.90;;;;;;5079976;28;19919;-78
2023/12/21 11:49:24;;;;;;;;;;;16.10;99.90;;;;;;5096515;28;19919;-78
2023/12/21 11:51:50;;;;;;;;;;;15.90;99.90;;;;;;5096267;28;20347;-78
2023/12/21 11:54:23;;;;;;;;;;;15.70;99.90;;;;;;5096638;28;19994;-77
2023/12/21 11:56:49;;;;;;;;;;;15.70;99.90;;;;;;5096862;28;19923;-78
2023/12/21 11:59:16;;;;;;;;;;;15.70;99.90;;;;;;5115187;28;20322;-78
2023/12/21 12:01:44;;;;;;;;;;;15.70;99.90;;;;;;5096690;28;20022;-77
2023/12/21 12:04:16;;;;;;;;;;;15.70;99.90;;;;;;5115085;28;19998;-78
2023/12/21 12:06:49;;;;;;;;;;;15.70;99.90;;;;;;5096471;28;19920;-77
2023/12/21 12:09:16;;;;;;;;;;;15.90;99.90;;;;;;5115378;28;20347;-77
2023/12/21 12:11:42;;;;;;;;;;;16.00;99.90;;;;;;5114958;28;19912;-77
2023/12/21 12:14:10;;;;;;;;;;;16.20;99.90;;;;;;5114945;28;20040;-78
2023/12/21 12:16:37;;;;;;;;;;;16.30;99.90;;;;;;5115123;28;19908;-77
2023/12/21 12:19:02;;;;;;;;;;;16.30;99.90;;;;;;5115666;28;19945;-77
2023/12/21 12:21:29;;;;;;;;;;;16.30;99.90;;;;;;5097055;28;20017;-78
2023/12/21 12:23:55;;;;;;;;;;;16.60;99.90;;;;;;5115539;28;19966;-79
2023/12/21 12:26:21;;;;;;;;;;;16.60;99.90;;;;;;5115486;28;19955;-78
2023/12/21 12:28:50;;;;;;;;;;;16.60;99.90;;;;;;5115753;28;20006;-78
2023/12/21 12:31:17;;;;;;;;;;;16.50;99.90;;;;;;5096892;28;20274;-77
2023/12/21 12:33:43;;;;;;;;;;;16.60;99.90;;;;;;5115168;28;19915;-77
2023/12/21 12:36:09;;;;;;;;;;;16.50;99.90;;;;;;5115088;28;19914;-77
2023/12/21 12:38:35;;;;;;;;;;;16.40;99.90;;;;;;5114968;28;20224;-78
2023/12/21 12:41:02;;;;;;;;;;;16.40;99.90;;;;;;5115410;28;19980;-78
2023/12/21 12:43:34;;;;;;;;;;;16.40;99.90;;;;;;5115387;28;19908;-78
2023/12/21 12:46:00;;;;;;;;;;;16.50;99.90;;;;;;5115501;28;19926;-79
2023/12/21 12:48:26;;;;;;;;;;;16.40;99.90;;;;;;5115137;28;20013;-77
2023/12/21 12:50:57;;;;;;;;;;;16.50;99.90;;;;;;5115112;28;20014;-78
2023/12/21 12:53:25;;;;;;;;;;;16.60;99.90;;;;;;5115185;28;19914;-77
2023/12/21 12:55:55;;;;;;;;;;;16.40;99.90;;;;;;5114606;28;19980;-77
2023/12/21 12:58:24;;;;;;;;;;;16.40;99.90;;;;;;5115225;28;19908;-77
2023/12/21 13:00:50;;;;;;;;;;;16.30;99.90;;;;;;5114721;28;19920;-78
2023/12/21 13:03:16;;;;;;;;;;;16.30;99.90;;;;;;5114626;28;19947;-75
2023/12/21 13:05:42;;;;;;;;;;;16.20;99.90;;;;;;5114655;28;19963;-77
2023/12/21 13:08:08;;;;;;;;;;;16.30;99.90;;;;;;5114586;28;19915;-77
2023/12/21 13:10:34;;;;;;;;;;;16.40;99.90;;;;;;5115080;28;19908;-78
2023/12/21 13:13:00;;;;;;;;;;;16.60;99.90;;;;;;5114710;28;19915;-78
2023/12/21 13:15:26;;;;;;;;;;;16.80;99.90;;;;;;5114772;28;19937;-78
2023/12/21 13:17:52;;;;;;;;;;;17.10;99.90;;;;;;5114851;28;20042;-76
2023/12/21 13:20:18;;;;;;;;;;;17.30;99.90;;;;;;5115117;28;19908;-78
2023/12/21 13:22:44;;;;;;;;;;;17.30;99.90;;;;;;5114462;28;19960;-77
2023/12/21 13:25:12;;;;;;;;;;;17.20;99.90;;;;;;5114675;28;19976;-78
2023/12/21 13:27:38;;;;;;;;;;;17.00;99.90;;;;;;5114556;28;19912;-78
2023/12/21 13:30:04;;;;;;;;;;;16.90;99.90;;;;;;5096195;28;19908;-77
2023/12/21 13:32:30;;;;;;;;;;;16.90;99.90;;;;;;5114566;28;19914;-78
2023/12/21 13:34:56;;;;;;;;;;;17.00;99.90;;;;;;5114466;28;19908;-76
2023/12/21 13:37:23;;;;;;;;;;;17.10;99.90;;;;;;5114075;28;19908;-78
2023/12/21 13:39:49;;;;;;;;;;;17.20;99.90;;;;;;5114801;28;20332;-77
2023/12/21 13:42:16;;;;;;;;;;;17.30;99.90;;;;;;5114136;28;20321;-77
2023/12/21 13:44:42;;;;;;;;;;;17.40;99.90;;;;;;5114157;28;19914;-78
2023/12/21 13:47:08;;;;;;;;;;;17.60;99.90;;;;;;5114744;28;19962;-79
2023/12/21 13:49:35;;;;;;;;;;;17.70;99.90;;;;;;5113959;28;19908;-77
2023/12/21 13:52:01;;;;;;;;;;;17.80;99.90;;;;;;5113581;28;19919;-79
2023/12/21 13:54:27;;;;;;;;;;;17.90;99.90;;;;;;5113816;28;19914;-77
2023/12/21 13:56:54;;;;;;;;;;;18.00;99.90;;;;;;5095300;28;19908;-78
2023/12/21 13:59:19;;;;;;;;;;;18.00;99.90;;;;;;5113233;28;19908;-78
2023/12/21 14:01:45;;;;;;;;;;;18.10;99.90;;;;;;5113531;28;19908;-77
2023/12/21 14:04:11;;;;;;;;;;;18.20;99.90;;;;;;5113184;28;19950;-77
2023/12/21 14:06:37;;;;;;;;;;;18.10;99.90;;;;;;5113736;28;19923;-78
2023/12/21 14:09:03;;;;;;;;;;;18.20;99.90;;;;;;5113454;28;19930;-78
2023/12/21 14:11:29;;;;;;;;;;;18.30;99.90;;;;;;5096032;28;20308;-78
2023/12/21 14:13:55;;;;;;;;;;;18.30;99.90;;;;;;5115051;28;20367;-79